Time;durP1;ratioP1;P1;durP2;ratioP2;P2;SDS_P1;SDS_P2;PMS_P1;PMS_P2;Temp;Humidity;BMP_temperature;BMP_pressure;BME280_temperature;BME280_humidity;BME280_pressure;Samples;Min_cycle;Max_cycle;Signal;HPM_P1;HPM_P2
2023/08/23 00:00:23;;;;;;;;;;;;;;;15.45;100.00;101391.25;5017754;28;20086;-86
2023/08/23 00:02:48;;;;;;;4.45;2.70;;;;;;;15.39;100.00;101383.91;5009852;28;20383;-85
2023/08/23 00:05:14;;;;;;;5.27;3.03;;;;;;;15.38;100.00;101385.78;5013915;28;20063;-86
2023/08/23 00:07:39;;;;;;;7.20;3.33;;;;;;;15.35;100.00;101382.59;5028240;28;20037;-86
2023/08/23 00:10:05;;;;;;;4.70;3.70;;;;;;;15.28;100.00;101381.63;5029372;28;20029;-87
2023/08/23 00:12:30;;;;;;;6.72;3.30;;;;;;;15.32;100.00;101391.03;5025901;28;20103;-87
2023/08/23 00:14:55;;;;;;;6.87;3.53;;;;;;;15.31;100.00;101386.66;5016906;28;20053;-84
2023/08/23 00:17:21;;;;;;;7.97;3.67;;;;;;;15.34;100.00;101394.38;5013443;28;20029;-84
2023/08/23 00:19:46;;;;;;;10.60;4.30;;;;;;;15.35;100.00;101396.03;4997527;28;20195;-86
2023/08/23 00:22:12;;;;;;;11.00;3.90;;;;;;;15.39;100.00;101408.97;5039437;28;20036;-85
2023/08/23 00:24:37;;;;;;;7.07;4.43;;;;;;;15.36;100.00;101400.44;5008980;28;20098;-87
2023/08/23 00:27:02;;;;;;;8.40;4.53;;;;;;;15.32;100.00;101401.78;5016876;28;20035;-86
2023/08/23 00:29:28;;;;;;;9.77;5.27;;;;;;;15.31;100.00;101400.09;5028429;28;20036;-84
2023/08/23 00:31:53;;;;;;;11.03;4.70;;;;;;;15.30;100.00;101399.25;5013433;28;20112;-87
2023/08/23 00:34:18;;;;;;;13.37;5.63;;;;;;;15.32;100.00;101394.56;5016660;28;20438;-84
2023/08/23 00:36:44;;;;;;;7.73;4.37;;;;;;;15.24;100.00;101383.84;5005766;28;20032;-84
2023/08/23 00:39:09;;;;;;;10.23;4.83;;;;;;;15.30;100.00;101393.88;5021848;28;20049;-87
2023/08/23 00:41:35;;;;;;;8.63;4.03;;;;;;;15.32;100.00;101393.72;5032111;28;20037;-85
2023/08/23 00:44:03;;;;;;;11.00;4.00;;;;;;;15.28;100.00;101397.78;5021768;28;20044;-86
2023/08/23 00:46:28;;;;;;;9.70;4.55;;;;;;;15.23;100.00;101386.72;5007227;28;20072;-85
2023/08/23 00:48:54;;;;;;;17.30;6.77;;;;;;;15.25;100.00;101390.91;4998482;28;20427;-86
2023/08/23 00:51:20;;;;;;;8.75;4.70;;;;;;;15.19;100.00;101387.06;5015970;28;20025;-87
2023/08/23 00:53:46;;;;;;;9.77;4.72;;;;;;;15.19;100.00;101394.28;5002954;28;20882;-86
2023/08/23 00:56:11;;;;;;;9.88;4.63;;;;;;;15.17;100.00;101394.47;5012855;28;20045;-86
2023/08/23 00:58:37;;;;;;;11.57;6.00;;;;;;;15.13;100.00;101390.47;4999827;28;20034;-86
2023/08/23 01:01:03;;;;;;;14.25;6.60;;;;;;;15.12;100.00;101391.47;5021069;28;20463;-86
2023/08/23 01:03:29;;;;;;;16.88;7.15;;;;;;;15.17;100.00;101404.38;5009556;28;20116;-84
2023/08/23 01:06:05;;;;;;;11.90;6.03;;;;;;;15.18;100.00;101406.91;5012600;28;20068;-86
2023/08/23 01:08:52;;;;;;;11.50;6.35;;;;;;;15.17;100.00;101409.75;5010158;28;20040;-84
2023/08/23 01:11:33;;;;;;;13.48;6.72;;;;;;;15.17;100.00;101407.06;5021405;28;20554;-86
2023/08/23 01:14:04;;;;;;;12.40;5.78;;;;;;;15.15;100.00;101407.25;5029318;28;20067;-87
2023/08/23 01:16:32;;;;;;;12.32;6.80;;;;;;;15.03;100.00;101383.63;5002049;28;20025;-87
2023/08/23 01:19:00;;;;;;;12.73;7.28;;;;;;;15.15;100.00;101404.56;5024708;28;20025;-86
2023/08/23 01:21:32;;;;;;;13.75;6.45;;;;;;;15.09;100.00;101396.38;5008486;28;20029;-83
2023/08/23 01:23:58;;;;;;;15.45;7.55;;;;;;;15.09;100.00;101394.50;5025658;28;20100;-87
2023/08/23 01:26:25;;;;;;;12.20;6.40;;;;;;;15.05;100.00;101393.19;5050867;28;20882;-87
2023/08/23 01:28:51;;;;;;;;;;;;;;;15.04;100.00;101393.38;5009875;28;20407;-86
2023/08/23 01:31:20;;;;;;;;;;;;;;;15.02;100.00;101401.59;5029140;28;19921;-86
2023/08/23 01:34:17;;;;;;;16.05;6.22;;;;;;;14.97;100.00;101398.63;5041728;28;19919;-84
2023/08/23 01:36:44;;;;;;;9.57;6.07;;;;;;;14.90;100.00;101387.72;5018162;28;20052;-86
2023/08/23 01:39:11;;;;;;;15.18;6.93;;;;;;;14.97;100.00;101391.38;5003528;28;20128;-87
2023/08/23 01:41:37;;;;;;;17.00;8.45;;;;;;;14.98;100.00;101381.47;5014962;28;20034;-86
2023/08/23 01:44:02;;;;;;;17.27;10.82;;;;;;;15.01;100.00;101389.19;5031268;28;20558;-87
2023/08/23 01:46:27;;;;;;;15.30;7.57;;;;;;;14.96;100.00;101392.41;5044522;28;20036;-86
2023/08/23 01:48:53;;;;;;;14.40;8.13;;;;;;;14.93;100.00;101392.72;5006620;28;20278;-88
2023/08/23 01:51:18;;;;;;;16.87;8.40;;;;;;;14.90;100.00;101392.28;5009036;28;20038;-86
2023/08/23 01:53:44;;;;;;;21.80;11.73;;;;;;;14.80;100.00;101384.41;5015461;28;20167;-86
2023/08/23 01:56:10;;;;;;;17.92;10.48;;;;;;;14.80;100.00;101381.72;5008206;28;20044;-84
2023/08/23 01:58:35;;;;;;;20.87;10.87;;;;;;;14.77;100.00;101388.28;5007497;28;20036;-86
2023/08/23 02:01:01;;;;;;;;;;;;;;;14.76;100.00;101389.28;5026169;28;20029;-84
2023/08/23 02:03:28;;;;;;;18.75;10.05;;;;;;;14.75;100.00;101379.56;5017967;28;20260;-85
2023/08/23 02:05:56;;;;;;;18.00;9.47;;;;;;;14.72;100.00;101384.44;5009730;28;20112;-86
2023/08/23 02:08:22;;;;;;;14.85;8.43;;;;;;;14.75;100.00;101384.09;5012571;28;20103;-86
2023/08/23 02:10:47;;;;;;;13.50;8.37;;;;;;;14.70;100.00;101381.94;5038604;28;20075;-86
2023/08/23 02:13:12;;;;;;;20.40;11.60;;;;;;;14.70;100.00;101384.63;5002816;28;20039;-86
2023/08/23 02:15:38;;;;;;;17.83;9.77;;;;;;;14.69;100.00;101382.09;5017428;28;20116;-85
2023/08/23 02:18:03;;;;;;;17.83;9.93;;;;;;;14.59;100.00;101376.09;5020954;28;20295;-85
2023/08/23 02:20:29;;;;;;;21.20;9.70;;;;;;;14.63;100.00;101383.63;5011166;28;20104;-84
2023/08/23 02:22:54;;;;;;;19.37;10.60;;;;;;;14.64;100.00;101379.09;5010515;28;20480;-85
2023/08/23 02:25:19;;;;;;;15.93;8.73;;;;;;;14.64;100.00;101382.63;5029360;28;20118;-86
2023/08/23 02:27:45;;;;;;;21.73;11.43;;;;;;;14.76;100.00;101391.97;5003804;28;20026;-85
2023/08/23 02:30:11;;;;;;;16.90;9.67;;;;;;;14.73;100.00;101397.72;5018116;28;20052;-84
2023/08/23 02:32:36;;;;;;;21.20;10.77;;;;;;;14.69;100.00;101391.00;5007089;28;20510;-86
2023/08/23 02:35:02;;;;;;;15.30;9.23;;;;;;;14.69;100.00;101391.00;5012466;28;20034;-87
2023/08/23 02:37:27;;;;;;;19.88;10.80;;;;;;;14.76;100.00;101394.66;5005385;28;20029;-86
2023/08/23 02:39:53;;;;;;;22.23;10.73;;;;;;;14.89;100.00;101402.19;5030929;28;20108;-86
2023/08/23 02:42:18;;;;;;;17.30;10.83;;;;;;;15.03;100.00;101397.94;5018829;28;20148;-86
2023/08/23 02:44:43;;;;;;;32.77;15.60;;;;;;;15.13;100.00;101397.69;5017269;28;20066;-87
2023/08/23 02:47:09;;;;;;;31.40;14.85;;;;;;;15.17;100.00;101399.00;5033053;22;20049;-75
2023/08/23 02:49:35;;;;;;;21.27;11.93;;;;;;;15.29;100.00;101402.13;5016963;28;20099;-74
2023/08/23 02:52:00;;;;;;;22.20;11.37;;;;;;;15.39;100.00;101405.44;5009097;28;20033;-72
2023/08/23 02:54:25;;;;;;;25.03;13.27;;;;;;;15.42;100.00;101407.75;5017088;28;20033;-73
2023/08/23 02:56:51;;;;;;;30.00;16.57;;;;;;;15.49;100.00;101414.09;5005392;28;20038;-73
2023/08/23 02:59:16;;;;;;;34.23;14.43;;;;;;;15.45;100.00;101412.78;5017877;28;20420;-75
2023/08/23 03:01:41;;;;;;;21.63;11.03;;;;;;;15.51;100.00;101419.31;5015043;23;20103;-72
2023/08/23 03:04:07;;;;;;;31.80;15.33;;;;;;;15.52;100.00;101410.22;4998319;28;20033;-72
2023/08/23 03:06:32;;;;;;;30.63;16.20;;;;;;;15.54;100.00;101411.72;5010638;28;20036;-72
2023/08/23 03:08:57;;;;;;;25.80;12.00;;;;;;;15.61;100.00;101404.59;4994859;28;20049;-72
2023/08/23 03:11:23;;;;;;;24.17;13.13;;;;;;;15.68;100.00;101411.97;4993619;28;20500;-72
2023/08/23 03:13:48;;;;;;;27.83;14.80;;;;;;;15.68;100.00;101403.88;5003433;28;20034;-72
2023/08/23 03:16:13;;;;;;;27.07;13.53;;;;;;;15.75;100.00;101399.50;5001966;28;20033;-72
2023/08/23 03:18:40;;;;;;;35.40;14.10;;;;;;;15.78;100.00;101407.19;5007964;28;20072;-72
2023/08/23 03:21:05;;;;;;;25.23;13.55;;;;;;;15.85;100.00;101404.63;5004878;28;20029;-72
2023/08/23 03:23:31;;;;;;;31.85;15.25;;;;;;;15.85;100.00;101415.38;5002150;28;20049;-72
2023/08/23 03:25:57;;;;;;;27.00;14.82;;;;;;;15.93;100.00;101413.47;5009870;28;20042;-72
2023/08/23 03:28:22;;;;;;;35.13;17.90;;;;;;;15.94;100.00;101412.44;5005733;28;20021;-72
2023/08/23 03:30:47;;;;;;;34.27;18.63;;;;;;;15.98;100.00;101418.31;4978088;28;20040;-72
2023/08/23 03:33:13;;;;;;;38.72;17.58;;;;;;;16.02;100.00;101417.78;5006304;28;20081;-72
2023/08/23 03:35:39;;;;;;;43.75;18.45;;;;;;;15.99;100.00;101409.19;5008839;28;20053;-72
2023/08/23 03:38:05;;;;;;;42.83;19.13;;;;;;;15.99;100.00;101415.44;5005237;28;20021;-72
2023/08/23 03:40:35;;;;;;;44.88;22.05;;;;;;;16.02;100.00;101420.47;4984345;28;20030;-72
2023/08/23 03:43:01;;;;;;;53.15;24.80;;;;;;;16.00;100.00;101425.19;4976175;28;20033;-72
2023/08/23 03:45:26;;;;;;;51.20;24.47;;;;;;;16.00;100.00;101421.66;5004413;28;20472;-73
2023/08/23 03:47:51;;;;;;;54.47;23.23;;;;;;;15.99;100.00;101420.84;4984886;28;20459;-72
2023/08/23 03:50:17;;;;;;;57.90;27.17;;;;;;;15.90;100.00;101418.41;5011111;28;20037;-72
2023/08/23 03:52:42;;;;;;;54.27;27.33;;;;;;;15.85;100.00;101412.69;4974124;28;20034;-72
2023/08/23 03:55:08;;;;;;;53.92;24.88;;;;;;;15.78;100.00;101416.13;4999381;28;20033;-72
2023/08/23 03:57:34;;;;;;;57.38;23.75;;;;;;;15.74;100.00;101406.72;4988530;28;20022;-72
2023/08/23 03:59:59;;;;;;;55.57;23.37;;;;;;;15.69;100.00;101408.28;4999574;28;20520;-72
2023/08/23 04:02:24;;;;;;;65.70;26.13;;;;;;;15.63;100.00;101412.50;5000516;28;20121;-72
2023/08/23 04:04:50;;;;;;;47.03;23.13;;;;;;;15.58;100.00;101402.28;4984624;28;20036;-72
2023/08/23 04:07:16;;;;;;;50.93;23.70;;;;;;;15.57;100.00;101411.38;4983104;28;20278;-71
2023/08/23 04:09:41;;;;;;;54.05;26.00;;;;;;;15.56;100.00;101415.06;4998211;28;20053;-72
2023/08/23 04:12:08;;;;;;;50.50;24.15;;;;;;;15.57;100.00;101399.78;4987106;28;20030;-72
2023/08/23 04:14:33;;;;;;;38.25;18.58;;;;;;;15.50;100.00;101396.97;5000812;28;20233;-72
2023/08/23 04:17:00;;;;;;;43.63;20.35;;;;;;;15.49;100.00;101397.97;4999118;28;20176;-72
2023/08/23 04:19:26;;;;;;;54.87;25.27;;;;;;;15.44;100.00;101394.97;5000511;28;20095;-72
2023/08/23 04:21:51;;;;;;;46.10;22.70;;;;;;;15.45;100.00;101402.03;4983586;28;20057;-72
2023/08/23 04:24:17;;;;;;;48.37;21.57;;;;;;;15.45;100.00;101401.19;5004909;28;20029;-72
2023/08/23 04:26:43;;;;;;;51.05;22.73;;;;;;;15.52;100.00;101410.22;4988836;28;20777;-72
2023/08/23 04:29:08;;;;;;;36.33;19.73;;;;;;;15.46;100.00;101406.41;4998718;28;20069;-72
2023/08/23 04:31:33;;;;;;;49.53;22.42;;;;;;;15.40;100.00;101402.59;4983846;28;20370;-72
2023/08/23 04:34:08;;;;;;;38.75;19.63;;;;;;;15.46;100.00;101408.25;4987364;28;20038;-72
2023/08/23 04:36:33;;;;;;;47.95;21.17;;;;;;;15.52;100.00;101413.78;4976757;28;20056;-72
2023/08/23 04:38:59;;;;;;;49.90;23.20;;;;;;;15.59;100.00;101413.88;5003188;28;20397;-72
2023/08/23 04:41:24;;;;;;;45.10;21.03;;;;;;;15.68;100.00;101417.34;5000621;28;20087;-72
2023/08/23 04:43:49;;;;;;;39.27;19.53;;;;;;;15.70;100.00;101409.94;4983876;28;20089;-72
2023/08/23 04:46:16;;;;;;;37.88;18.58;;;;;;;15.76;100.00;101411.94;4988033;28;20038;-72
2023/08/23 04:48:42;;;;;;;30.40;18.40;;;;;;;15.78;100.00;101407.19;4980163;28;20039;-71
2023/08/23 04:51:10;;;;;;;32.43;16.10;;;;;;;15.87;100.00;101414.19;5005975;28;20022;-72
2023/08/23 04:53:36;;;;;;;35.08;17.42;;;;;;;15.99;100.00;101412.75;5006233;28;20435;-72
2023/08/23 04:56:02;;;;;;;33.15;18.83;;;;;;;16.14;100.00;101415.47;5008278;28;20030;-72
2023/08/23 04:58:31;;;;;;;34.20;16.75;;;;;;;16.38;100.00;101413.56;5005335;28;20027;-72
2023/08/23 05:01:04;;;;;;;37.38;18.38;;;;;;;16.29;100.00;101399.31;4994406;28;20503;-72
2023/08/23 05:03:30;;;;;;;36.05;16.02;;;;;;;16.26;100.00;101394.31;5012008;28;20033;-72
2023/08/23 05:05:57;;;;;;;;;;;;;;;16.34;100.00;101394.25;4987890;28;20116;-72
2023/08/23 05:08:22;;;;;;;35.40;16.63;;;;;;;16.35;100.00;101387.00;5014328;28;19913;-72
2023/08/23 05:10:52;;;;;;;27.43;14.40;;;;;;;16.34;100.00;101380.78;4980514;28;20125;-72
2023/08/23 05:13:18;;;;;;;35.67;16.33;;;;;;;16.42;100.00;101380.66;5008329;28;20038;-72
2023/08/23 05:15:43;;;;;;;27.83;14.48;;;;;;;16.46;100.00;101381.16;5010174;28;20033;-72
2023/08/23 05:18:08;;;;;;;21.83;12.67;;;;;;;16.48;100.00;101378.25;5012626;28;20093;-72
2023/08/23 05:20:36;;;;;;;20.98;11.77;;;;;;;16.55;100.00;101379.16;4998426;28;20772;-72
2023/08/23 05:23:02;;;;;;;19.95;12.23;;;;;;;16.58;100.00;101386.91;4989641;28;20120;-71
2023/08/23 05:25:28;;;;;;;21.77;11.13;;;;;;;16.68;100.00;101390.97;5003012;28;20128;-72
2023/08/23 05:27:54;;;;;;;20.38;11.98;;;;;;;17.05;100.00;101405.38;5021728;28;20064;-72
2023/08/23 05:30:21;;;;;;;24.73;13.38;;;;;;;17.61;100.00;101403.91;5017177;28;20484;-73
2023/08/23 05:32:46;;;;;;;21.25;12.88;;;;;;;18.29;100.00;101383.50;4988334;28;20048;-72
2023/08/23 05:35:12;;;;;;;20.90;10.53;;;;;;;18.89;100.00;101362.19;4986495;28;20042;-72
2023/08/23 05:37:37;;;;;;;28.23;11.57;;;;;;;19.95;100.00;101339.06;5006930;28;20394;-72
2023/08/23 05:40:03;;;;;;;18.60;9.68;;;;;;;20.18;100.00;101312.31;5004749;28;20042;-72
2023/08/23 05:42:30;;;;;;;17.83;8.77;;;;;;;19.56;100.00;101276.50;4985565;28;20037;-72
2023/08/23 05:44:56;;;;;;;18.15;9.23;;;;;;;19.27;100.00;101280.47;4989455;28;20022;-72
2023/08/23 05:47:22;;;;;;;19.88;11.30;;;;;;;18.84;100.00;101290.81;4985216;28;20121;-72
2023/08/23 05:49:47;;;;;;;22.98;11.60;;;;;;;18.61;100.00;101291.09;4986348;28;20140;-73
2023/08/23 05:52:13;;;;;;;20.67;10.87;;;;;;;18.31;100.00;101315.75;4995171;28;20022;-72
2023/08/23 05:54:38;;;;;;;23.87;12.13;;;;;;;18.04;100.00;101333.66;5004303;28;20477;-72
2023/08/23 05:57:04;;;;;;;23.37;12.93;;;;;;;17.79;100.00;101346.72;5006706;28;20092;-72
2023/08/23 05:59:30;;;;;;;34.88;16.05;;;;;;;17.80;100.00;101378.94;5003924;28;20427;-72
2023/08/23 06:01:55;;;;;;;24.97;13.63;;;;;;;18.84;100.00;101416.06;5002153;28;20040;-72
2023/08/23 06:04:21;;;;;;;20.63;12.70;;;;;;;19.55;100.00;101333.59;5011097;28;20097;-72
2023/08/23 06:06:47;;;;;;;23.63;14.47;;;;;;;19.09;100.00;101277.53;5009073;28;20365;-72
2023/08/23 06:09:12;;;;;;;24.33;14.18;;;;;;;18.74;100.00;101297.41;5001215;28;20121;-72
2023/08/23 06:11:38;;;;;;;32.10;14.63;;;;;;;18.53;100.00;101311.88;5006860;28;20464;-72
2023/08/23 06:14:24;;;;;;;25.13;15.37;;;;;;;18.34;100.00;101328.84;5005336;28;20092;-72
2023/08/23 06:16:50;;;;;;;23.70;15.02;;;;;;;18.09;100.00;101348.22;5001797;28;20531;-72
2023/08/23 06:19:15;;;;;;;21.80;13.75;;;;;;;18.10;100.00;101351.78;4985099;28;20034;-72
2023/08/23 06:21:41;;;;;;;25.47;14.40;;;;;;;18.07;100.00;101361.09;5008392;28;20045;-72
2023/08/23 06:24:07;;;;;;;26.27;14.43;;;;;;;19.23;100.00;101387.50;4999187;28;20296;-72
2023/08/23 06:26:33;;;;;;;17.40;10.98;;;;;;;20.75;100.00;101322.59;5006904;28;20566;-73
2023/08/23 06:28:58;;;;;;;17.10;11.17;;;;;;;21.67;100.00;101139.09;5005460;28;20118;-73
2023/08/23 06:31:23;;;;;;;18.63;8.83;;;;;;;22.49;100.00;101040.75;5003320;28;20112;-73
2023/08/23 06:33:49;;;;;;;12.33;8.10;;;;;;;23.50;100.00;100868.09;5006058;28;20510;-73
2023/08/23 06:36:14;;;;;;;16.15;9.73;;;;;;;23.70;100.00;100704.13;5000241;28;20493;-73
2023/08/23 06:38:43;;;;;;;15.53;8.60;;;;;;;23.47;100.00;100528.88;5006210;28;20041;-73
2023/08/23 06:41:08;;;;;;;12.63;8.63;;;;;;;23.12;100.00;100568.16;5003704;28;20117;-73
2023/08/23 06:43:33;;;;;;;16.10;7.27;;;;;;;23.68;100.00;100602.69;5002441;28;20091;-73
2023/08/23 06:46:00;;;;;;;15.60;9.47;;;;;;;23.66;100.00;100501.28;5003496;28;20045;-73
2023/08/23 06:48:26;;;;;;;12.07;7.82;;;;;;;23.31;100.00;100704.88;4990340;28;20041;-72
2023/08/23 06:50:51;;;;;;;13.38;9.88;;;;;;;23.32;100.00;100438.78;5002907;28;20038;-73
2023/08/23 06:53:16;;;;;;;13.03;9.37;;;;;;;22.76;100.00;100363.50;4998284;28;20037;-73
2023/08/23 06:55:42;;;;;;;18.13;9.87;;;;;;;22.97;100.00;100581.53;5006328;28;20038;-73
2023/08/23 06:58:10;;;;;;;15.23;8.40;;;;;;;23.10;100.00;100396.03;5004792;28;20038;-73
2023/08/23 07:00:35;;;;;;;12.63;7.35;;;;;;;23.36;100.00;100589.72;4982860;28;20303;-73
2023/08/23 07:03:01;;;;;;;13.23;7.13;;;;;;;23.63;100.00;100659.88;5006667;28;20034;-73
2023/08/23 07:05:27;;;;;;;9.88;7.22;;;;;;;24.01;100.00;100498.97;5001042;28;20493;-73
2023/08/23 07:07:52;;;;;;;11.67;6.43;;;;;;;24.18;100.00;100449.75;5001535;28;20061;-73
2023/08/23 07:10:18;;;;;;;11.07;7.03;;;;;;;24.03;100.00;100436.00;4999774;28;20269;-73
2023/08/23 07:12:43;;;;;;;10.77;6.72;;;;;;;24.59;100.00;100487.50;5003777;28;20045;-73
2023/08/23 07:15:09;;;;;;;12.40;6.70;;;;;;;23.81;100.00;100079.00;4998937;28;20026;-73
2023/08/23 07:17:36;;;;;;;11.13;6.35;;;;;;;23.62;100.00;100464.72;5001891;28;20571;-73
2023/08/23 07:20:05;;;;;;;11.95;6.18;;;;;;;23.57;100.00;100588.91;5000349;28;20044;-73
2023/08/23 07:22:31;;;;;;;11.10;5.95;;;;;;;24.27;100.00;100518.28;5000907;28;20033;-73
2023/08/23 07:24:56;;;;;;;12.00;5.88;;;;;;;23.71;100.00;100384.16;5000234;28;20034;-73
2023/08/23 07:27:22;;;;;;;8.10;5.30;;;;;;;23.57;100.00;100330.06;4984112;28;20034;-73
2023/08/23 07:29:47;;;;;;;11.57;5.45;;;;;;;23.58;100.00;100325.47;5002493;28;20313;-73
2023/08/23 07:32:13;;;;;;;7.93;5.23;;;;;;;22.72;100.00;100563.72;5002162;28;20038;-72
2023/08/23 07:34:38;;;;;;;8.30;3.85;;;;;;;22.88;100.00;100795.31;5000960;28;20288;-73
2023/08/23 07:37:05;;;;;;;7.97;4.13;;;;;;;23.26;100.00;100737.47;4997937;28;20451;-73
2023/08/23 07:39:30;;;;;;;6.95;3.05;;;;;;;24.37;100.00;100626.69;5004481;28;20064;-73
2023/08/23 07:41:56;;;;;;;6.97;3.30;;;;;;;23.87;100.00;100390.59;4999738;28;20370;-73
2023/08/23 07:44:21;;;;;;;6.15;2.67;;;;;;;22.72;100.00;100465.75;5008018;28;20397;-73
2023/08/23 07:46:46;;;;;;;7.63;3.07;;;;;;;22.72;100.00;100721.53;5002501;28;20480;-72
2023/08/23 07:49:14;;;;;;;5.03;2.63;;;;;;;21.77;100.00;100589.66;5002501;28;20281;-72
2023/08/23 07:51:39;;;;;;;8.77;2.60;;;;;;;22.16;100.00;100897.13;5003147;28;20021;-72
2023/08/23 07:54:04;;;;;;;5.40;2.53;;;;;;;21.50;100.00;100728.72;4981010;28;20049;-72
2023/08/23 07:56:30;;;;;;;7.80;2.43;;;;;;;20.89;100.00;100726.34;5000255;28;20030;-72
2023/08/23 07:58:55;;;;;;;6.07;2.30;;;;;;;21.42;100.00;100942.78;4999573;28;20087;-72
2023/08/23 08:01:20;;;;;;;5.53;1.90;;;;;;;21.87;100.00;100826.31;5000036;28;20424;-72
2023/08/23 08:03:46;;;;;;;7.90;2.80;;;;;;;21.65;100.00;100792.63;5005335;28;20033;-72
2023/08/23 08:06:11;;;;;;;6.23;2.43;;;;;;;21.70;100.00;100790.88;4997769;28;20073;-72
2023/08/23 08:08:39;;;;;;;5.40;1.88;;;;;;;22.31;100.00;100883.94;5000270;28;20046;-72
2023/08/23 08:11:05;;;;;;;4.30;2.38;;;;;;;23.17;100.00;100725.34;4997788;28;20045;-72
2023/08/23 08:13:30;;;;;;;4.47;2.30;;;;;;;23.75;100.00;100638.78;4999488;28;20033;-72
2023/08/23 08:15:56;;;;;;;3.85;2.20;;;;;;;23.87;100.00;100595.88;4999081;28;20037;-73
2023/08/23 08:18:21;;;;;;;6.22;2.67;;;;;;;22.95;100.00;100237.97;4998112;28;20061;-72
2023/08/23 08:20:48;;;;;;;5.40;2.50;;;;;;;23.16;100.00;100506.69;4999627;28;20037;-72
2023/08/23 08:23:13;;;;;;;5.05;2.10;;;;;;;23.64;100.00;100675.13;4997102;28;20038;-73
2023/08/23 08:25:39;;;;;;;3.30;1.93;;;;;;;24.22;100.00;100628.19;4999722;28;20026;-73
2023/08/23 08:28:05;;;;;;;6.03;2.10;;;;;;;23.96;100.00;100504.38;4997719;28;20034;-72
2023/08/23 08:30:30;;;;;;;5.47;2.28;;;;;;;24.07;100.00;100605.34;4981409;28;20569;-72
2023/08/23 08:32:55;;;;;;;4.90;2.37;;;;;;;23.82;100.00;100251.56;4998788;28;20072;-72
2023/08/23 08:35:21;;;;;;;5.90;2.17;;;;;;;24.41;100.00;100481.31;4997820;28;20030;-72
2023/08/23 08:37:46;;;;;;;5.17;1.80;;;;;;;24.90;100.00;100349.25;4999711;28;20484;-73
2023/08/23 08:40:12;;;;;;;3.60;1.73;;;;;;;25.47;99.86;100128.91;4996604;28;20393;-73
2023/08/23 08:42:37;;;;;;;5.05;2.10;;;;;;;24.94;98.71;100035.56;5002932;28;20484;-72
2023/08/23 08:45:07;;;;;;;7.70;2.03;;;;;;;24.18;100.00;100267.03;5000777;28;20396;-73
2023/08/23 08:47:32;;;;;;;7.68;2.03;;;;;;;24.21;100.00;100091.97;5006195;28;20104;-73
2023/08/23 08:49:57;;;;;;;3.43;1.90;;;;;;;24.26;100.00;100421.19;5008487;28;20556;-72
2023/08/23 08:52:25;;;;;;;6.10;2.35;;;;;;;24.71;97.14;99916.84;5006978;28;20504;-72
2023/08/23 08:54:53;;;;;;;3.90;2.45;;;;;;;24.24;92.99;99591.53;4998747;28;20051;-72
2023/08/23 08:57:19;;;;;;;7.47;2.58;;;;;;;25.45;93.07;99987.09;5007233;28;20038;-72
2023/08/23 08:59:46;;;;;;;4.47;2.05;;;;;;;26.36;90.05;99992.31;5008431;28;20022;-72
2023/08/23 09:02:12;;;;;;;;;;;;;;;24.67;88.00;99507.25;5003740;28;20058;-72
2023/08/23 09:04:39;;;;;;;6.20;2.10;;;;;;;25.56;88.21;99814.88;5006235;28;19909;-72
2023/08/23 09:07:04;;;;;;;4.60;1.90;;;;;;;26.19;86.23;99814.09;5004518;28;20108;-73
2023/08/23 09:09:30;;;;;;;2.55;2.05;;;;;;;26.24;84.58;99751.94;5008698;28;20145;-73
2023/08/23 09:11:55;;;;;;;4.38;1.90;;;;;;;27.13;82.80;99854.63;4983849;28;20121;-73
2023/08/23 09:14:21;;;;;;;3.63;1.70;;;;;;;26.76;84.47;99930.09;5000587;28;20062;-72
2023/08/23 09:16:47;;;;;;;4.15;2.17;;;;;;;26.16;79.18;99284.06;5009636;28;20048;-73
2023/08/23 09:19:13;;;;;;;2.50;1.60;;;;;;;26.70;80.26;99647.38;4985536;28;20042;-73
2023/08/23 09:21:45;;;;;;;;;;;;;;;27.01;78.37;99611.31;5002822;28;20030;-73
2023/08/23 09:24:11;;;;;;;3.50;2.10;;;;;;;25.86;78.37;99313.53;4998344;28;19922;-73
2023/08/23 09:26:37;;;;;;;;;;;;;;;26.24;81.01;99727.31;5000069;28;20026;-73
2023/08/23 09:29:03;;;;;;;6.60;2.13;;;;;;;26.52;78.25;99531.28;5003948;28;20304;-73
2023/08/23 09:31:28;;;;;;;4.93;1.60;;;;;;;26.44;80.05;99734.47;5004464;28;20038;-73
2023/08/23 09:33:54;;;;;;;4.45;1.63;;;;;;;26.74;78.04;99617.50;5001914;28;20484;-73
2023/08/23 09:36:40;;;;;;;4.85;1.60;;;;;;;26.35;79.56;99675.22;4999822;28;20034;-72
2023/08/23 09:39:09;;;;;;;5.18;1.40;;;;;;;26.46;77.55;99537.97;5008287;28;20659;-73
2023/08/23 09:41:42;;;;;;;5.18;1.77;;;;;;;26.47;77.04;99585.28;5001383;28;20022;-72
2023/08/23 09:44:08;;;;;;;2.05;1.83;;;;;;;26.44;72.81;99022.25;4982097;28;20037;-72
2023/08/23 09:46:36;;;;;;;1.77;1.20;;;;;;;26.55;75.56;99466.16;5001421;28;20026;-73
2023/08/23 09:49:04;;;;;;;3.45;1.35;;;;;;;27.10;75.09;99592.25;5000273;28;20448;-72
2023/08/23 09:51:34;;;;;;;3.00;1.30;;;;;;;26.52;76.05;99566.84;5004903;28;20026;-72
2023/08/23 09:54:08;;;;;;;3.70;1.45;;;;;;;26.95;78.21;99949.38;5007433;28;20037;-72
2023/08/23 09:56:35;;;;;;;4.15;1.52;;;;;;;27.86;74.59;99745.56;5009061;28;20582;-73
2023/08/23 09:59:02;;;;;;;3.83;1.48;;;;;;;26.85;71.33;99093.25;5004557;28;20033;-72
2023/08/23 10:01:28;;;;;;;4.00;1.40;;;;;;;26.69;71.38;99108.41;5008332;28;20045;-72
2023/08/23 10:03:53;;;;;;;4.72;1.95;;;;;;;27.06;73.89;99509.06;5008171;28;20061;-72
2023/08/23 10:06:20;;;;;;;2.85;1.80;;;;;;;26.84;73.35;99493.31;4985886;28;20324;-72
2023/08/23 10:08:45;;;;;;;4.00;1.60;;;;;;;28.05;71.34;99628.34;5006506;28;20037;-73
2023/08/23 10:11:10;;;;;;;4.30;2.20;;;;;;;27.77;72.58;99638.50;4998403;28;20034;-72
2023/08/23 10:13:37;;;;;;;3.40;1.90;;;;;;;27.89;70.39;99416.69;5004046;28;20036;-72
2023/08/23 10:16:05;;;;;;;2.22;1.65;;;;;;;27.97;71.34;99642.78;5005666;28;20037;-72
2023/08/23 10:18:33;;;;;;;5.97;1.60;;;;;;;27.83;69.90;99357.56;5008634;28;20046;-73
2023/08/23 10:20:58;;;;;;;6.13;1.52;;;;;;;28.25;68.92;99462.47;4999898;28;20029;-73
2023/08/23 10:23:25;;;;;;;5.85;1.83;;;;;;;28.14;67.90;99277.25;5002340;28;20026;-72
2023/08/23 10:25:51;;;;;;;4.03;1.45;;;;;;;27.43;67.23;98981.94;5002348;28;20032;-72
2023/08/23 10:28:18;;;;;;;3.08;1.88;;;;;;;27.16;69.56;99233.03;5004529;28;20034;-73
2023/08/23 10:30:45;;;;;;;3.83;1.55;;;;;;;26.92;69.65;99185.91;5003008;28;20037;-73
2023/08/23 10:33:13;;;;;;;2.80;2.00;;;;;;;25.77;71.34;99115.78;5001172;28;20053;-72
2023/08/23 10:35:40;;;;;;;3.72;1.65;;;;;;;27.38;70.24;99526.59;4996829;28;20026;-72
2023/08/23 10:38:08;;;;;;;3.65;1.45;;;;;;;27.01;71.39;99504.50;5003328;28;20045;-72
2023/08/23 10:40:35;;;;;;;2.90;1.75;;;;;;;27.07;71.90;99579.97;4985086;28;20562;-72
2023/08/23 10:43:09;;;;;;;3.67;1.63;;;;;;;27.48;69.54;99433.19;5003193;28;20370;-72
2023/08/23 10:45:50;;;;;;;4.15;1.58;;;;;;;27.50;68.57;99343.25;4969163;28;20049;-73
2023/08/23 10:48:19;;;;;;;6.28;1.88;;;;;;;27.03;68.34;99172.81;5003222;28;20518;-72
2023/08/23 10:50:46;;;;;;;1.55;1.20;;;;;;;27.63;68.45;99364.34;5007891;28;20025;-72
2023/08/23 10:53:13;;;;;;;4.20;1.25;;;;;;;28.04;68.17;99475.84;5003162;28;20037;-73
2023/08/23 10:55:38;;;;;;;2.88;1.42;;;;;;;27.52;67.46;99157.38;5004332;28;20152;-73
2023/08/23 10:58:03;;;;;;;3.28;1.13;;;;;;;26.44;68.62;99039.47;5001374;28;20534;-73
2023/08/23 11:00:29;;;;;;;1.20;1.00;;;;;;;27.66;68.46;99519.16;5003180;28;20026;-72
2023/08/23 11:02:55;;;;;;;;;;;;;;;28.02;66.45;99283.31;5009203;28;20080;-72
2023/08/23 11:05:21;;;;;;;;;;;;;;;27.18;67.94;99197.09;4984099;28;20476;-73
2023/08/23 11:07:46;;;;;;;5.28;1.85;;;;;;;25.34;69.61;98848.38;5006994;28;19909;-73
2023/08/23 11:10:12;;;;;;;6.07;1.50;;;;;;;24.61;74.21;99262.84;5002402;28;20091;-72